createdAt,value
2022-11-13T00:01:20.046Z,17.13
2022-11-13T00:03:49.864Z,23.73
2022-11-13T00:06:20.168Z,19.67
2022-11-13T00:08:47.890Z,16.10
2022-11-13T00:11:19.784Z,14.27
2022-11-13T00:13:47.495Z,15.93
2022-11-13T00:16:17.434Z,15.45
2022-11-13T00:18:47.440Z,15.18
2022-11-13T00:21:19.434Z,16.55
2022-11-13T00:23:46.268Z,15.60
2022-11-13T00:26:15.978Z,14.55
2022-11-13T00:28:43.050Z,17.88
2022-11-13T00:31:11.778Z,17.98
2022-11-13T00:34:05.331Z,14.23
2022-11-13T00:36:27.462Z,14.35
2022-11-13T00:38:57.014Z,15.18
2022-11-13T00:41:24.553Z,16.42
2022-11-13T00:43:51.640Z,12.48
2022-11-13T00:46:18.688Z,15.93
2022-11-13T00:48:45.817Z,17.17
2022-11-13T00:51:12.531Z,15.63
2022-11-13T00:53:41.643Z,15.73
2022-11-13T00:56:08.284Z,19.23
2022-11-13T00:58:34.893Z,13.90
2022-11-13T01:01:11.520Z,13.25
2022-11-13T01:03:38.312Z,16.55
2022-11-13T01:06:14.632Z,16.25
2022-11-13T01:08:41.579Z,14.10
2022-11-13T01:11:14.176Z,15.38
2022-11-13T01:13:42.473Z,13.30
2022-11-13T01:16:11.500Z,17.05
2022-11-13T01:18:38.164Z,14.70
2022-11-13T01:21:16.938Z,14.02
2022-11-13T01:23:43.604Z,17.23
2022-11-13T01:26:15.269Z,17.58
2022-11-13T01:28:43.617Z,17.25
2022-11-13T01:31:16.816Z,15.60
2022-11-13T01:33:45.191Z,19.33
2022-11-13T01:36:16.660Z,21.05
2022-11-13T01:38:45.416Z,19.65
2022-11-13T01:41:23.852Z,18.85
2022-11-13T01:43:51.487Z,22.23
2022-11-13T01:46:31.848Z,20.40
2022-11-13T01:49:10.816Z,18.02
2022-11-13T01:51:45.436Z,18.17
2022-11-13T01:54:17.784Z,22.75
2022-11-13T01:56:44.689Z,20.15
2022-11-13T01:59:18.826Z,16.27
2022-11-13T02:01:45.450Z,21.40
2022-11-13T02:04:12.035Z,21.65
2022-11-13T02:06:50.786Z,23.38
2022-11-13T02:09:22.142Z,22.63
2022-11-13T02:11:49.371Z,20.40
2022-11-13T02:14:17.430Z,20.38
2022-11-13T02:16:47.351Z,21.95
2022-11-13T02:19:29.720Z,24.83
2022-11-13T02:22:22.589Z,19.70
2022-11-13T02:24:55.142Z,25.70
2022-11-13T02:27:44.966Z,22.23
2022-11-13T02:30:25.364Z,23.23
2022-11-13T02:32:55.966Z,22.30
2022-11-13T02:35:26.793Z,23.60
2022-11-13T02:37:56.191Z,15.95
2022-11-13T02:40:24.278Z,17.95
2022-11-13T02:42:51.080Z,15.60
2022-11-13T02:45:20.085Z,18.65
2022-11-13T02:47:46.717Z,18.23
2022-11-13T02:50:14.053Z,14.88
2022-11-13T02:52:40.825Z,19.63
2022-11-13T02:55:07.705Z,17.35
2022-11-13T02:57:36.545Z,13.55
2022-11-13T03:00:07.985Z,17.45
2022-11-13T03:02:39.239Z,15.60
2022-11-13T03:05:13.997Z,15.20
2022-11-13T03:07:42.105Z,14.43
2022-11-13T03:10:10.656Z,16.65
2022-11-13T03:12:37.660Z,14.02
2022-11-13T03:15:08.355Z,12.60
2022-11-13T03:17:35.366Z,14.40
2022-11-13T03:20:02.056Z,13.77
2022-11-13T03:22:28.659Z,16.08
2022-11-13T03:24:57.495Z,11.80
2022-11-13T03:27:24.002Z,11.77
2022-11-13T03:29:50.513Z,13.60
2022-11-13T03:32:17.082Z,16.08
2022-11-13T03:34:43.562Z,12.02
2022-11-13T03:37:10.147Z,11.50
2022-11-13T03:39:36.628Z,12.80
2022-11-13T03:42:03.174Z,11.75
2022-11-13T03:44:29.899Z,10.25
2022-11-13T03:46:58.754Z,12.77
2022-11-13T03:49:25.254Z,13.35
2022-11-13T03:51:51.835Z,13.48
2022-11-13T03:54:18.417Z,11.05
2022-11-13T03:56:44.917Z,11.32
2022-11-13T03:59:11.473Z,9.85
2022-11-13T04:01:40.236Z,10.32
2022-11-13T04:04:06.797Z,14.50
2022-11-13T04:06:36.298Z,9.60
2022-11-13T04:09:05.387Z,11.52
2022-11-13T04:11:32.010Z,12.65
2022-11-13T04:13:58.558Z,11.73
2022-11-13T04:16:25.110Z,16.25
2022-11-13T04:18:53.883Z,12.25
2022-11-13T04:21:20.405Z,9.48
2022-11-13T04:23:47.365Z,10.52
2022-11-13T04:26:16.298Z,9.20
2022-11-13T04:28:45.300Z,10.02
2022-11-13T04:31:14.522Z,12.15
2022-11-13T04:33:43.512Z,12.50
2022-11-13T04:36:10.239Z,11.30
2022-11-13T04:38:39.214Z,14.27
2022-11-13T04:41:24.310Z,11.23
2022-11-13T04:43:50.846Z,13.73
2022-11-13T04:46:17.342Z,11.23
2022-11-13T04:48:43.865Z,10.60
2022-11-13T04:51:10.410Z,15.18
2022-11-13T04:53:36.978Z,12.35
2022-11-13T04:56:03.733Z,11.13
2022-11-13T04:58:30.780Z,11.52
2022-11-13T05:00:57.449Z,12.70
2022-11-13T05:03:24.052Z,11.85
2022-11-13T05:05:50.626Z,12.70
2022-11-13T05:08:17.159Z,12.30
2022-11-13T05:10:46.465Z,13.25
2022-11-13T05:13:13.036Z,12.38
2022-11-13T05:15:39.569Z,12.10
2022-11-13T05:18:06.142Z,13.40
2022-11-13T05:20:32.699Z,11.60
2022-11-13T05:23:01.695Z,10.18
2022-11-13T05:25:28.282Z,11.52
2022-11-13T05:27:57.564Z,10.38
2022-11-13T05:30:24.510Z,11.07
2022-11-13T05:32:53.500Z,9.68
2022-11-13T05:35:20.245Z,10.73
2022-11-13T05:37:46.880Z,13.20
2022-11-13T05:40:13.464Z,12.95
2022-11-13T05:42:42.212Z,10.20
2022-11-13T05:45:12.070Z,11.85
2022-11-13T05:47:38.790Z,10.05
2022-11-13T05:50:05.837Z,10.52
2022-11-13T05:52:32.577Z,11.38
2022-11-13T05:55:01.410Z,9.93
2022-11-13T05:57:27.907Z,15.40
2022-11-13T05:59:54.610Z,11.45
2022-11-13T06:02:21.293Z,11.80
2022-11-13T06:04:54.078Z,10.68
2022-11-13T06:07:22.909Z,11.38
2022-11-13T06:09:49.627Z,12.50
2022-11-13T06:12:16.100Z,12.35
2022-11-13T06:14:42.662Z,12.82
2022-11-13T06:17:09.339Z,13.15
2022-11-13T06:19:35.817Z,11.43
2022-11-13T06:22:02.307Z,10.38
2022-11-13T06:24:28.866Z,11.95
2022-11-13T06:26:55.352Z,12.40
2022-11-13T06:29:22.081Z,15.77
2022-11-13T06:31:48.680Z,11.23
2022-11-13T06:34:15.223Z,14.07
2022-11-13T06:36:41.802Z,11.75
2022-11-13T06:39:09.547Z,11.18
2022-11-13T06:41:38.421Z,13.75
2022-11-13T06:44:07.765Z,15.43
2022-11-13T06:46:34.408Z,15.93
2022-11-13T06:49:03.428Z,15.85
2022-11-13T06:51:31.410Z,16.58
2022-11-13T06:53:58.473Z,13.55
2022-11-13T06:56:26.394Z,14.52
2022-11-13T06:58:54.824Z,17.60
2022-11-13T07:01:23.717Z,18.63
2022-11-13T07:03:50.335Z,15.55
2022-11-13T07:06:22.893Z,14.30
2022-11-13T07:08:49.842Z,16.92
2022-11-13T07:11:18.828Z,17.00
2022-11-13T07:13:45.480Z,11.93
2022-11-13T07:16:17.959Z,16.67
2022-11-13T07:18:54.681Z,14.18
2022-11-13T07:21:22.144Z,13.50
2022-11-13T07:23:49.829Z,16.67
2022-11-13T07:26:16.652Z,17.35
2022-11-13T07:28:43.520Z,15.73
2022-11-13T07:31:14.252Z,16.20
2022-11-13T07:33:43.287Z,12.90
2022-11-13T07:36:10.802Z,14.23
2022-11-13T07:38:37.760Z,12.30
2022-11-13T07:41:04.540Z,14.00
2022-11-13T07:43:31.215Z,16.58
2022-11-13T07:45:58.564Z,14.90
2022-11-13T07:48:26.978Z,13.32
2022-11-13T07:50:54.316Z,15.77
2022-11-13T07:53:24.005Z,12.88
2022-11-13T07:55:50.831Z,14.15
2022-11-13T07:58:19.922Z,18.52
2022-11-13T08:00:46.675Z,14.50
2022-11-13T08:03:15.710Z,14.57
2022-11-13T08:05:43.347Z,17.02
2022-11-13T08:08:16.820Z,19.90
2022-11-13T08:10:43.363Z,20.88
2022-11-13T08:13:11.227Z,16.80
2022-11-13T08:15:38.448Z,22.67
2022-11-13T08:18:05.554Z,16.75
2022-11-13T08:20:32.542Z,18.80
2022-11-13T08:23:00.712Z,16.23
2022-11-13T08:25:28.332Z,16.00
2022-11-13T08:27:55.800Z,15.65
2022-11-13T08:30:25.592Z,14.38
2022-11-13T08:32:52.292Z,15.07
2022-11-13T08:35:21.324Z,15.77
2022-11-13T08:37:49.825Z,14.98
2022-11-13T08:40:16.386Z,12.07
2022-11-13T08:42:42.941Z,20.05
2022-11-13T08:45:10.018Z,15.02
2022-11-13T08:47:36.934Z,14.15
2022-11-13T08:50:05.775Z,13.10
2022-11-13T08:52:32.374Z,18.00
2022-11-13T08:54:58.975Z,12.50
2022-11-13T08:57:30.176Z,14.13
2022-11-13T08:59:57.365Z,15.48
2022-11-13T09:02:27.050Z,16.13
2022-11-13T09:04:53.605Z,16.15
2022-11-13T09:07:24.597Z,14.88
2022-11-13T09:09:53.657Z,14.63
2022-11-13T09:12:20.225Z,14.45
2022-11-13T09:14:49.217Z,11.95
2022-11-13T09:17:16.274Z,12.77
2022-11-13T09:19:42.956Z,14.05
2022-11-13T09:22:10.727Z,11.48
2022-11-13T09:24:37.935Z,11.07
2022-11-13T09:27:04.773Z,12.43
2022-11-13T09:29:31.316Z,11.52
2022-11-13T09:31:57.882Z,12.10
2022-11-13T09:34:27.324Z,9.73
2022-11-13T09:36:54.684Z,14.48
2022-11-13T09:39:21.438Z,10.55
2022-11-13T09:41:53.296Z,9.98
2022-11-13T09:44:41.636Z,10.55
2022-11-13T09:47:24.418Z,11.23
2022-11-13T09:50:02.860Z,12.63
2022-11-13T09:52:37.421Z,11.98
2022-11-13T09:55:04.598Z,9.82
2022-11-13T09:58:03.455Z,10.85
2022-11-13T10:00:34.322Z,9.68
2022-11-13T10:03:46.145Z,10.88
2022-11-13T10:06:21.185Z,11.43
2022-11-13T10:08:56.041Z,9.40
2022-11-13T10:11:41.156Z,8.70
2022-11-13T10:14:30.753Z,11.30
2022-11-13T10:17:24.741Z,7.60
2022-11-13T10:20:01.029Z,9.43
2022-11-13T10:22:40.737Z,10.40
2022-11-13T10:25:20.982Z,8.93
2022-11-13T10:27:59.628Z,8.75
2022-11-13T10:30:26.947Z,8.60
2022-11-13T10:32:53.879Z,10.18
2022-11-13T10:35:23.483Z,11.23
2022-11-13T10:38:22.347Z,9.60
2022-11-13T10:40:49.208Z,8.00
2022-11-13T10:43:15.761Z,10.27
2022-11-13T10:45:53.196Z,8.82
2022-11-13T10:48:29.962Z,8.02
2022-11-13T10:51:05.104Z,10.32
2022-11-13T10:53:41.661Z,8.80
2022-11-13T10:56:34.764Z,9.95
2022-11-13T10:59:13.338Z,9.95
2022-11-13T11:01:41.762Z,8.18
2022-11-13T11:04:12.994Z,12.70
2022-11-13T11:09:32.570Z,9.48
2022-11-13T11:12:18.808Z,9.23
2022-11-13T11:14:57.241Z,8.60
2022-11-13T11:17:42.852Z,9.38
2022-11-13T11:20:21.879Z,9.70
2022-11-13T11:22:54.330Z,8.85
2022-11-13T11:25:38.917Z,6.93
2022-11-13T11:28:13.216Z,7.38
2022-11-13T11:30:49.690Z,8.48
2022-11-13T11:33:48.785Z,7.32
2022-11-13T11:36:28.265Z,11.88
2022-11-13T11:39:00.104Z,8.63
2022-11-13T11:41:34.509Z,11.82
2022-11-13T11:44:18.399Z,8.73
2022-11-13T11:46:46.790Z,10.27
2022-11-13T11:49:13.542Z,7.85
2022-11-13T11:51:45.518Z,9.95
2022-11-13T11:54:30.982Z,7.90
2022-11-13T11:57:06.016Z,8.85
2022-11-13T11:59:56.836Z,9.40
2022-11-13T12:02:38.787Z,9.27
2022-11-13T12:05:19.567Z,9.95
2022-11-13T12:07:49.534Z,9.20
2022-11-13T12:10:37.398Z,8.40
2022-11-13T12:13:12.873Z,11.05
2022-11-13T12:15:54.434Z,8.88
2022-11-13T12:18:41.814Z,10.40
2022-11-13T12:21:08.211Z,9.10
2022-11-13T12:24:11.177Z,8.05
2022-11-13T12:27:01.667Z,9.40
2022-11-13T12:29:57.344Z,12.05
2022-11-13T12:33:01.305Z,8.55
2022-11-13T12:35:29.421Z,10.05
2022-11-13T12:38:08.141Z,13.23
2022-11-13T12:40:44.315Z,8.88
2022-11-13T12:43:23.563Z,6.28
2022-11-13T12:45:56.002Z,7.25
2022-11-13T12:48:40.691Z,9.10
2022-11-13T12:51:13.788Z,6.00
2022-11-13T12:53:46.143Z,11.55
2022-11-13T12:56:24.629Z,9.23
2022-11-13T12:59:28.500Z,8.02
2022-11-13T13:01:52.210Z,8.73
2022-11-13T13:04:43.372Z,9.70
2022-11-13T13:07:22.984Z,8.32
2022-11-13T13:10:19.737Z,7.13
2022-11-13T13:13:15.438Z,7.78
2022-11-13T13:15:55.314Z,6.75
2022-11-13T13:18:21.868Z,8.02
2022-11-13T13:20:57.619Z,7.35
2022-11-13T13:23:41.620Z,8.48
2022-11-13T13:26:45.021Z,5.47
2022-11-13T13:29:28.776Z,6.90
2022-11-13T13:32:19.419Z,6.53
2022-11-13T13:35:19.690Z,11.50
2022-11-13T13:38:01.451Z,10.80
2022-11-13T13:40:41.305Z,6.32
2022-11-13T13:43:42.429Z,5.70
2022-11-13T13:46:18.873Z,4.75
2022-11-13T13:48:50.467Z,6.03
2022-11-13T13:51:19.797Z,5.20
2022-11-13T13:53:47.898Z,8.55
2022-11-13T13:56:14.857Z,5.30
2022-11-13T13:58:42.411Z,5.32
2022-11-13T14:01:19.364Z,5.88
2022-11-13T14:03:46.682Z,5.32
2022-11-13T14:06:22.125Z,7.57
2022-11-13T14:08:48.869Z,4.68
2022-11-13T14:11:27.186Z,6.90
2022-11-13T14:13:56.174Z,5.43
2022-11-13T14:16:25.126Z,9.32
2022-11-13T14:18:53.851Z,7.55
2022-11-13T14:21:23.398Z,7.43
2022-11-13T14:23:52.459Z,6.78
2022-11-13T14:26:22.734Z,7.63
2022-11-13T14:29:00.325Z,6.70
2022-11-13T14:31:30.525Z,7.63
2022-11-13T14:34:00.724Z,6.82
2022-11-13T14:36:31.506Z,6.88
2022-11-13T14:38:59.195Z,8.68
2022-11-13T14:41:46.744Z,9.25
2022-11-13T14:44:13.321Z,8.27
2022-11-13T14:46:46.001Z,9.23
2022-11-13T14:49:31.167Z,8.30
2022-11-13T14:51:58.693Z,7.72
2022-11-13T14:55:08.120Z,6.47
2022-11-13T14:57:23.258Z,8.82
2022-11-13T14:59:49.905Z,8.02
2022-11-13T15:02:16.482Z,7.00
2022-11-13T15:04:42.993Z,10.75
2022-11-13T15:07:29.372Z,8.90
2022-11-13T15:09:57.473Z,7.57
2022-11-13T15:12:24.375Z,9.98
2022-11-13T15:14:51.499Z,7.60
2022-11-13T15:17:21.001Z,7.63
2022-11-13T15:19:51.022Z,7.90
2022-11-13T15:22:27.157Z,10.68
2022-11-13T15:24:54.779Z,11.13
2022-11-13T15:27:24.356Z,11.75
2022-11-13T15:29:50.887Z,8.85
2022-11-13T15:32:20.344Z,12.32
2022-11-13T15:34:46.924Z,9.70
2022-11-13T15:37:15.785Z,10.65
2022-11-13T15:39:42.433Z,13.45
2022-11-13T15:42:17.759Z,10.70
2022-11-13T15:44:44.315Z,10.35
2022-11-13T15:47:31.086Z,10.07
2022-11-13T15:50:14.872Z,8.02
2022-11-13T15:52:46.539Z,12.75
2022-11-13T15:55:24.592Z,8.88
2022-11-13T15:57:51.696Z,11.75
2022-11-13T16:00:25.183Z,14.38
2022-11-13T16:02:56.663Z,10.60
2022-11-13T16:05:29.698Z,10.52
2022-11-13T16:07:56.849Z,11.43
2022-11-13T16:10:27.540Z,9.00
2022-11-13T16:12:55.397Z,10.55
2022-11-13T16:15:22.258Z,11.50
2022-11-13T16:17:55.745Z,11.07
2022-11-13T16:20:22.375Z,10.50
2022-11-13T16:22:48.933Z,12.80
2022-11-13T16:25:21.703Z,11.77
2022-11-13T16:27:53.522Z,13.07
2022-11-13T16:30:21.907Z,11.00
2022-11-13T16:32:48.784Z,12.82
2022-11-13T16:35:17.036Z,12.48
2022-11-13T16:37:46.407Z,14.52
2022-11-13T16:40:19.419Z,17.77
2022-11-13T16:42:49.151Z,18.33
2022-11-13T16:45:18.447Z,22.05
2022-11-13T16:47:46.101Z,26.88
2022-11-13T16:50:24.915Z,22.30
2022-11-13T16:52:51.475Z,21.25
2022-11-13T16:55:18.203Z,18.88
2022-11-13T16:57:44.810Z,22.55
2022-11-13T17:00:17.852Z,22.27
2022-11-13T17:02:44.660Z,24.50
2022-11-13T17:05:15.848Z,21.40
2022-11-13T17:07:42.923Z,20.92
2022-11-13T17:10:32.640Z,21.77
2022-11-13T17:13:00.637Z,20.92
2022-11-13T17:15:27.287Z,22.40
2022-11-13T17:17:57.133Z,21.35
2022-11-13T17:20:24.492Z,32.70
2022-11-13T17:22:51.036Z,25.05
2022-11-13T17:25:18.623Z,30.63
2022-11-13T17:27:45.120Z,26.00
2022-11-13T17:30:15.178Z,21.90
2022-11-13T17:32:41.762Z,20.50
2022-11-13T17:35:13.489Z,17.55
2022-11-13T17:37:40.407Z,15.45
2022-11-13T17:40:10.208Z,17.75
2022-11-13T17:42:36.746Z,16.27
2022-11-13T17:45:04.685Z,18.42
2022-11-13T17:47:34.011Z,20.25
2022-11-13T17:50:07.606Z,21.33
2022-11-13T17:52:34.527Z,17.38
2022-11-13T17:55:01.065Z,21.33
2022-11-13T17:57:27.602Z,26.52
2022-11-13T17:59:56.620Z,26.80
2022-11-13T18:02:23.976Z,27.50
2022-11-13T18:04:50.525Z,27.20
2022-11-13T18:07:17.268Z,28.73
2022-11-13T18:09:43.820Z,25.27
2022-11-13T18:12:10.560Z,19.63
2022-11-13T18:14:37.108Z,19.65
2022-11-13T18:17:06.213Z,19.02
2022-11-13T18:19:33.217Z,21.55
2022-11-13T18:22:04.245Z,19.67
2022-11-13T18:24:30.860Z,20.25
2022-11-13T18:26:57.654Z,16.55
2022-11-13T18:29:24.214Z,16.98
2022-11-13T18:31:50.773Z,15.32
2022-11-13T18:34:17.591Z,21.30
2022-11-13T18:36:46.688Z,17.90
2022-11-13T18:39:16.558Z,15.02
2022-11-13T18:41:43.648Z,13.73
2022-11-13T18:44:12.652Z,18.60
2022-11-13T18:46:39.683Z,15.52
2022-11-13T18:49:07.399Z,15.05
2022-11-13T18:51:35.616Z,14.10
2022-11-13T18:54:11.642Z,15.05
2022-11-13T18:56:41.712Z,13.38
2022-11-13T18:59:09.418Z,15.10
2022-11-13T19:01:38.265Z,17.80
2022-11-13T19:04:22.900Z,14.05
2022-11-13T19:06:52.593Z,15.32
2022-11-13T19:09:19.358Z,15.45
2022-11-13T19:11:46.599Z,13.63
2022-11-13T19:14:15.484Z,16.27
2022-11-13T19:16:42.048Z,17.05
2022-11-13T19:19:20.259Z,16.27
2022-11-13T19:21:47.578Z,14.13
2022-11-13T19:24:14.964Z,16.60
2022-11-13T19:26:43.176Z,14.98
2022-11-13T19:29:09.770Z,19.27
2022-11-13T19:31:36.276Z,18.10
2022-11-13T19:34:06.212Z,25.02
2022-11-13T19:36:33.931Z,33.83
2022-11-13T19:39:00.718Z,41.90
2022-11-13T19:41:30.069Z,40.72
2022-11-13T19:43:59.782Z,30.20
2022-11-13T19:46:26.818Z,30.92
2022-11-13T19:48:53.656Z,29.05
2022-11-13T19:51:22.801Z,28.58
2022-11-13T19:53:58.027Z,31.13
2022-11-13T19:56:25.988Z,40.95
2022-11-13T19:58:52.869Z,41.88
2022-11-13T20:01:27.353Z,27.63
2022-11-13T20:03:59.885Z,23.90
2022-11-13T20:06:27.880Z,17.48
2022-11-13T20:08:54.854Z,25.05
2022-11-13T20:11:21.451Z,22.13
2022-11-13T20:13:50.275Z,25.23
2022-11-13T20:16:17.445Z,23.23
2022-11-13T20:18:44.466Z,24.48
2022-11-13T20:21:11.091Z,21.55
2022-11-13T20:23:39.067Z,20.92
2022-11-13T20:26:08.739Z,21.58
2022-11-13T20:28:35.414Z,20.70
2022-11-13T20:31:16.377Z,18.45
2022-11-13T20:33:49.088Z,21.33
2022-11-13T20:36:17.142Z,19.83
2022-11-13T20:38:48.029Z,19.98
2022-11-13T20:41:15.347Z,21.83
2022-11-13T20:43:41.861Z,24.38
2022-11-13T20:46:15.880Z,20.98
2022-11-13T20:48:48.285Z,22.38
2022-11-13T20:51:19.414Z,20.98
2022-11-13T20:53:46.833Z,19.60
2022-11-13T20:56:13.880Z,19.40
2022-11-13T20:58:40.897Z,20.70
2022-11-13T21:01:10.646Z,17.95
2022-11-13T21:03:41.273Z,20.70
2022-11-13T21:06:10.169Z,23.38
2022-11-13T21:08:37.161Z,18.23
2022-11-13T21:11:07.912Z,19.52
2022-11-13T21:13:35.095Z,18.45
2022-11-13T21:16:08.494Z,21.98
2022-11-13T21:18:35.238Z,19.15
2022-11-13T21:21:14.839Z,21.92
2022-11-13T21:23:41.381Z,20.60
2022-11-13T21:26:09.247Z,20.73
2022-11-13T21:28:39.224Z,20.33
2022-11-13T21:31:09.856Z,20.92
2022-11-13T21:33:41.408Z,20.23
2022-11-13T21:36:15.352Z,23.13
2022-11-13T21:38:42.787Z,22.30
2022-11-13T21:41:26.649Z,18.67
2022-11-13T21:43:56.867Z,22.58
2022-11-13T21:46:36.315Z,18.20
2022-11-13T21:49:07.559Z,17.90
2022-11-13T21:51:36.483Z,19.92
2022-11-13T21:54:06.211Z,20.95
2022-11-13T21:56:34.300Z,21.08
2022-11-13T21:59:00.906Z,21.02
2022-11-13T22:01:27.678Z,21.80
2022-11-13T22:03:55.251Z,19.00
2022-11-13T22:06:27.088Z,22.60
2022-11-13T22:09:02.298Z,27.48
2022-11-13T22:11:31.944Z,24.92
2022-11-13T22:13:59.530Z,32.10
2022-11-13T22:16:27.941Z,35.15
2022-11-13T22:18:56.660Z,30.25
2022-11-13T22:21:29.697Z,34.65
2022-11-13T22:23:57.267Z,33.42
2022-11-13T22:26:25.484Z,27.98
2022-11-13T22:28:53.325Z,26.20
2022-11-13T22:31:22.896Z,20.92
2022-11-13T22:33:54.448Z,23.25
2022-11-13T22:36:27.776Z,19.20
2022-11-13T22:38:54.355Z,21.48
2022-11-13T22:41:30.801Z,20.50
2022-11-13T22:44:06.765Z,21.65
2022-11-13T22:46:35.473Z,18.77
2022-11-13T22:49:03.021Z,19.45
2022-11-13T22:51:32.105Z,17.40
2022-11-13T22:54:00.940Z,19.48
2022-11-13T22:56:30.015Z,16.88
2022-11-13T22:58:59.364Z,17.73
2022-11-13T23:01:30.725Z,19.70
2022-11-13T23:03:59.998Z,16.30
2022-11-13T23:06:28.802Z,20.90
2022-11-13T23:08:55.891Z,18.50
2022-11-13T23:11:25.458Z,19.52
2022-11-13T23:13:54.316Z,18.55
2022-11-13T23:16:22.830Z,18.30
2022-11-13T23:18:51.106Z,15.75
2022-11-13T23:21:18.469Z,16.90
2022-11-13T23:23:45.472Z,12.38
2022-11-13T23:26:14.026Z,14.65
2022-11-13T23:28:41.011Z,18.65
2022-11-13T23:31:08.406Z,14.85
2022-11-13T23:33:38.181Z,15.88
2022-11-13T23:36:10.182Z,18.10
2022-11-13T23:38:37.079Z,16.45
2022-11-13T23:41:03.752Z,13.35
2022-11-13T23:43:54.400Z,15.07
2022-11-13T23:46:17.392Z,14.50
2022-11-13T23:48:43.929Z,13.95
2022-11-13T23:51:10.545Z,14.70
2022-11-13T23:53:37.182Z,14.38
2022-11-13T23:56:03.932Z,13.33
2022-11-13T23:58:33.400Z,15.35
